createdAt,value
2019-03-13T00:01:45.981Z,4.10
2019-03-13T00:04:15.336Z,2.40
2019-03-13T00:06:44.711Z,2.43
2019-03-13T00:09:14.482Z,2.70
2019-03-13T00:11:43.787Z,3.93
2019-03-13T00:14:13.102Z,2.63
2019-03-13T00:16:42.451Z,2.03
2019-03-13T00:19:11.768Z,2.77
2019-03-13T00:21:41.069Z,2.03
2019-03-13T00:24:10.373Z,2.37
2019-03-13T00:26:39.682Z,1.83
2019-03-13T00:29:08.993Z,1.80
2019-03-13T00:31:38.307Z,1.07
2019-03-13T00:34:07.615Z,3.50
2019-03-13T00:36:36.911Z,1.27
2019-03-13T00:39:06.974Z,0.90
2019-03-13T00:41:36.427Z,1.73
2019-03-13T00:44:06.698Z,1.43
2019-03-13T00:46:35.994Z,1.13
2019-03-13T00:49:05.298Z,3.33
2019-03-13T00:51:36.947Z,1.27
2019-03-13T00:54:05.643Z,1.43
2019-03-13T00:56:35.912Z,0.90
2019-03-13T00:59:05.229Z,1.10
2019-03-13T01:01:45.970Z,0.90
2019-03-13T01:04:16.925Z,0.57
2019-03-13T01:06:48.074Z,2.60
2019-03-13T01:09:17.408Z,3.60
2019-03-13T01:11:46.697Z,0.60
2019-03-13T01:14:16.011Z,0.43
2019-03-13T01:16:45.302Z,0.70
2019-03-13T01:19:34.910Z,0.70
2019-03-13T01:22:04.479Z,0.87
2019-03-13T01:24:33.778Z,0.80
2019-03-13T01:27:03.078Z,0.30
2019-03-13T01:29:32.378Z,0.67
2019-03-13T01:32:19.895Z,0.50
2019-03-13T01:34:50.851Z,1.30
2019-03-13T01:37:20.151Z,0.73
2019-03-13T01:39:49.467Z,0.40
2019-03-13T01:42:18.775Z,0.70
2019-03-13T01:44:48.186Z,1.80
2019-03-13T01:47:17.476Z,0.60
2019-03-13T01:49:46.784Z,1.80
2019-03-13T01:52:16.083Z,0.73
2019-03-13T01:54:45.411Z,0.70
2019-03-13T01:57:14.674Z,0.67
2019-03-13T01:59:43.974Z,0.67
2019-03-13T02:02:13.287Z,0.50
2019-03-13T02:04:42.635Z,0.63
2019-03-13T02:07:11.936Z,0.60
2019-03-13T02:09:41.234Z,0.70
2019-03-13T02:12:10.547Z,2.17
2019-03-13T02:14:39.855Z,0.80
2019-03-13T02:17:09.156Z,0.47
2019-03-13T02:19:38.437Z,1.97
2019-03-13T02:22:07.743Z,0.80
2019-03-13T02:24:37.044Z,0.70
2019-03-13T02:27:06.352Z,0.73
2019-03-13T02:29:36.680Z,0.57
2019-03-13T02:32:05.987Z,0.43
2019-03-13T02:34:36.263Z,0.50
2019-03-13T02:37:05.582Z,0.80
2019-03-13T02:39:34.885Z,0.97
2019-03-13T02:42:04.212Z,0.67
2019-03-13T02:44:33.514Z,1.10
2019-03-13T02:47:02.820Z,0.83
2019-03-13T02:49:32.102Z,1.77
2019-03-13T02:52:01.403Z,0.80
2019-03-13T02:54:30.702Z,1.27
2019-03-13T02:57:00.019Z,2.50
2019-03-13T02:59:29.430Z,2.03
2019-03-13T03:02:00.383Z,0.77
2019-03-13T03:04:29.691Z,0.77
2019-03-13T03:06:59.182Z,1.57
2019-03-13T03:09:28.464Z,0.60
2019-03-13T03:11:57.819Z,1.30
2019-03-13T03:14:28.167Z,0.93
2019-03-13T03:16:57.471Z,1.10
2019-03-13T03:19:26.783Z,0.60
2019-03-13T03:21:56.110Z,0.87
2019-03-13T03:24:25.410Z,2.30
2019-03-13T03:26:54.700Z,1.10
2019-03-13T03:29:23.978Z,1.00
2019-03-13T03:31:53.308Z,2.03
2019-03-13T03:34:22.602Z,1.13
2019-03-13T03:36:51.959Z,1.27
2019-03-13T03:39:21.275Z,2.03
2019-03-13T03:41:50.633Z,3.23
2019-03-13T03:47:19.199Z,3.10
2019-03-13T03:49:48.483Z,2.97
2019-03-13T03:52:17.799Z,2.70
2019-03-13T03:54:47.103Z,1.53
2019-03-13T03:57:16.414Z,1.37
2019-03-13T03:59:45.737Z,3.00
2019-03-13T04:02:15.186Z,1.37
2019-03-13T04:04:44.523Z,1.50
2019-03-13T04:07:14.166Z,1.70
2019-03-13T04:09:43.459Z,2.50
2019-03-13T04:12:14.375Z,2.63
2019-03-13T04:14:43.685Z,3.43
2019-03-13T04:17:12.988Z,23.13
2019-03-13T04:19:42.319Z,18.00
2019-03-13T04:22:11.621Z,2.97
2019-03-13T04:24:40.923Z,2.33
2019-03-13T04:27:10.231Z,2.47
2019-03-13T04:29:39.545Z,5.27
2019-03-13T04:32:08.835Z,2.30
2019-03-13T04:34:38.166Z,6.17
2019-03-13T04:37:07.471Z,6.70
2019-03-13T04:39:37.003Z,3.60
2019-03-13T04:42:06.283Z,3.50
2019-03-13T04:44:35.601Z,3.10
2019-03-13T04:47:04.886Z,5.33
2019-03-13T04:49:34.197Z,2.73
2019-03-13T04:52:03.483Z,4.60
2019-03-13T04:54:32.775Z,4.93
2019-03-13T04:57:02.188Z,4.20
2019-03-13T04:59:31.466Z,4.03
2019-03-13T05:02:00.788Z,3.57
2019-03-13T05:04:30.089Z,4.63
2019-03-13T05:06:59.391Z,4.00
2019-03-13T05:09:34.098Z,4.07
2019-03-13T05:12:03.412Z,5.37
2019-03-13T05:14:32.992Z,3.50
2019-03-13T05:17:02.402Z,4.67
2019-03-13T05:19:31.712Z,3.53
2019-03-13T05:22:01.018Z,4.40
2019-03-13T05:24:30.431Z,3.33
2019-03-13T05:26:59.730Z,2.80
2019-03-13T05:29:29.126Z,3.20
2019-03-13T05:31:58.422Z,2.53
2019-03-13T05:34:28.035Z,3.33
2019-03-13T05:36:57.335Z,4.40
2019-03-13T05:39:26.652Z,2.13
2019-03-13T05:41:55.946Z,6.37
2019-03-13T05:44:25.251Z,5.03
2019-03-13T05:46:54.569Z,5.93
2019-03-13T05:49:23.950Z,4.50
2019-03-13T05:51:53.258Z,2.10
2019-03-13T05:54:22.631Z,4.40
2019-03-13T05:56:52.995Z,5.20
2019-03-13T05:59:22.279Z,2.70
2019-03-13T06:01:51.579Z,2.97
2019-03-13T06:04:20.971Z,6.50
2019-03-13T06:06:50.279Z,3.47
2019-03-13T06:09:19.597Z,4.37
2019-03-13T06:11:48.907Z,5.27
2019-03-13T06:14:18.257Z,3.33
2019-03-13T06:16:47.598Z,2.93
2019-03-13T06:19:16.878Z,3.03
2019-03-13T06:21:47.188Z,5.43
2019-03-13T06:24:16.475Z,3.50
2019-03-13T06:26:46.926Z,4.10
2019-03-13T06:29:16.334Z,4.50
2019-03-13T06:31:45.651Z,3.50
2019-03-13T06:34:15.034Z,2.00
2019-03-13T06:36:44.350Z,4.93
2019-03-13T06:39:13.650Z,4.60
2019-03-13T06:41:43.111Z,3.10
2019-03-13T06:44:12.404Z,3.60
2019-03-13T06:46:41.711Z,3.73
2019-03-13T06:49:11.010Z,5.07
2019-03-13T06:51:40.327Z,2.77
2019-03-13T06:54:09.631Z,4.73
2019-03-13T06:56:38.948Z,1.77
2019-03-13T06:59:18.994Z,2.80
2019-03-13T07:01:59.054Z,4.53
2019-03-13T07:04:30.099Z,7.73
2019-03-13T07:07:03.775Z,4.03
2019-03-13T07:09:39.536Z,3.57
2019-03-13T07:12:13.295Z,5.80
2019-03-13T07:14:44.235Z,4.50
2019-03-13T07:17:15.183Z,3.80
2019-03-13T07:19:58.276Z,3.80
2019-03-13T07:22:38.248Z,5.97
2019-03-13T07:25:15.918Z,6.23
2019-03-13T07:27:52.870Z,2.50
2019-03-13T07:30:32.642Z,2.40
2019-03-13T07:33:09.643Z,2.53
2019-03-13T07:35:40.566Z,2.73
2019-03-13T07:38:11.510Z,4.27
2019-03-13T07:40:52.959Z,2.33
2019-03-13T07:43:42.104Z,1.87
2019-03-13T07:46:13.046Z,4.43
2019-03-13T07:48:56.028Z,2.60
2019-03-13T07:51:32.833Z,2.40
2019-03-13T07:54:20.299Z,5.07
2019-03-13T07:56:53.942Z,1.50
2019-03-13T07:59:24.902Z,7.23
2019-03-13T08:01:55.850Z,5.33
2019-03-13T08:04:32.743Z,10.93
2019-03-13T08:07:03.686Z,31.80
2019-03-13T08:09:40.430Z,10.93
2019-03-13T08:12:27.848Z,9.43
2019-03-13T08:15:01.761Z,5.20
2019-03-13T08:17:32.977Z,8.03
2019-03-13T08:20:09.659Z,4.33
2019-03-13T08:22:59.163Z,8.37
2019-03-13T08:25:32.895Z,4.57
2019-03-13T08:28:12.597Z,4.87
2019-03-13T08:30:52.505Z,2.90
2019-03-13T08:33:26.134Z,3.70
2019-03-13T08:36:06.069Z,1.80
2019-03-13T08:38:39.745Z,3.03
2019-03-13T08:41:13.759Z,4.57
2019-03-13T08:43:44.711Z,2.73
2019-03-13T08:46:18.345Z,6.43
2019-03-13T08:48:58.335Z,1.40
2019-03-13T08:51:38.487Z,3.03
2019-03-13T08:54:27.911Z,3.73
2019-03-13T08:57:04.922Z,4.37
2019-03-13T08:59:41.477Z,4.40
2019-03-13T09:02:14.999Z,5.40
2019-03-13T09:04:45.975Z,5.17
2019-03-13T09:07:22.892Z,3.67
2019-03-13T09:09:53.828Z,2.80
2019-03-13T09:12:27.963Z,3.47
2019-03-13T09:14:58.910Z,5.67
2019-03-13T09:17:29.849Z,3.63
2019-03-13T09:20:00.813Z,3.53
2019-03-13T09:22:49.331Z,4.03
2019-03-13T09:25:23.272Z,3.27
2019-03-13T09:28:22.038Z,4.50
2019-03-13T09:31:09.669Z,6.70
2019-03-13T09:33:46.566Z,6.10
2019-03-13T09:36:20.202Z,3.93
2019-03-13T09:38:51.150Z,11.97
2019-03-13T09:41:31.167Z,7.97
2019-03-13T09:44:18.398Z,7.40
2019-03-13T09:47:05.878Z,5.63
2019-03-13T09:49:48.891Z,3.10
2019-03-13T09:52:28.631Z,3.73
2019-03-13T09:54:59.600Z,3.90
2019-03-13T09:57:33.288Z,4.77
2019-03-13T10:00:07.220Z,5.40
2019-03-13T10:02:38.223Z,6.10
2019-03-13T10:05:10.227Z,3.37
2019-03-13T10:07:52.967Z,5.33
2019-03-13T10:10:29.680Z,7.77
2019-03-13T10:13:09.639Z,10.20
2019-03-13T10:15:44.635Z,9.13
2019-03-13T10:18:15.591Z,15.67
2019-03-13T10:20:46.550Z,9.60
2019-03-13T10:23:17.486Z,9.80
2019-03-13T10:25:51.389Z,8.07
2019-03-13T10:28:34.291Z,7.07
2019-03-13T10:31:08.291Z,4.70
2019-03-13T10:33:39.239Z,6.27
2019-03-13T10:36:10.182Z,4.60
2019-03-13T10:38:41.122Z,6.13
2019-03-13T10:41:12.090Z,3.80
2019-03-13T10:43:43.030Z,3.30
2019-03-13T10:46:13.984Z,3.67
2019-03-13T10:48:57.295Z,5.27
2019-03-13T10:51:30.985Z,3.53
2019-03-13T10:54:18.219Z,4.00
2019-03-13T10:56:53.207Z,3.33
2019-03-13T10:59:24.155Z,5.60
2019-03-13T11:02:09.908Z,5.73
2019-03-13T11:04:40.846Z,6.93
2019-03-13T11:07:14.307Z,4.37
2019-03-13T11:09:47.928Z,15.47
2019-03-13T11:12:30.985Z,7.50
2019-03-13T11:15:04.936Z,4.00
2019-03-13T11:17:47.954Z,3.63
2019-03-13T11:20:30.975Z,13.63
2019-03-13T11:23:04.623Z,6.53
2019-03-13T11:25:35.571Z,6.97
2019-03-13T11:28:17.080Z,9.67
2019-03-13T11:31:00.136Z,8.37
2019-03-13T11:33:32.254Z,15.40
2019-03-13T11:36:19.535Z,5.37
2019-03-13T11:38:50.483Z,10.07
2019-03-13T11:41:30.693Z,9.50
2019-03-13T11:44:19.738Z,6.77
2019-03-13T11:47:07.051Z,5.57
2019-03-13T11:49:40.950Z,6.53
2019-03-13T11:52:28.197Z,4.13
2019-03-13T11:55:01.832Z,4.03
2019-03-13T11:57:32.763Z,5.97
2019-03-13T12:00:12.422Z,2.70
2019-03-13T12:02:43.371Z,6.87
2019-03-13T12:05:14.578Z,4.00
2019-03-13T12:07:51.551Z,1.50
2019-03-13T12:10:28.016Z,4.27
2019-03-13T12:13:04.952Z,6.20
2019-03-13T12:15:38.863Z,2.30
2019-03-13T12:18:12.487Z,3.30
2019-03-13T12:21:01.529Z,2.73
2019-03-13T12:23:48.838Z,1.63
2019-03-13T12:26:33.042Z,2.20
2019-03-13T12:29:03.981Z,2.53
2019-03-13T12:31:34.926Z,2.47
2019-03-13T12:34:08.716Z,2.20
2019-03-13T12:36:41.982Z,2.30
2019-03-13T12:39:14.835Z,4.07
2019-03-13T12:41:48.704Z,3.57
2019-03-13T12:44:19.671Z,6.37
2019-03-13T12:46:59.618Z,5.23
2019-03-13T12:49:36.422Z,4.90
2019-03-13T12:52:07.382Z,4.57
2019-03-13T12:54:38.330Z,8.10
2019-03-13T12:57:09.371Z,5.33
2019-03-13T12:59:56.426Z,4.57
2019-03-13T13:02:39.555Z,4.50
2019-03-13T13:05:22.698Z,4.23
2019-03-13T13:08:02.440Z,4.33
2019-03-13T13:10:48.523Z,4.70
2019-03-13T13:13:36.078Z,3.03
2019-03-13T13:16:19.183Z,3.17
2019-03-13T13:18:54.115Z,3.20
2019-03-13T13:21:23.567Z,4.03
2019-03-13T13:23:52.886Z,3.57
2019-03-13T13:26:22.370Z,2.40
2019-03-13T13:28:51.764Z,4.13
2019-03-13T13:31:21.118Z,1.43
2019-03-13T13:33:50.602Z,5.40
2019-03-13T13:36:19.918Z,2.97
2019-03-13T13:38:49.303Z,3.53
2019-03-13T13:41:18.632Z,3.33
2019-03-13T13:43:47.930Z,5.93
2019-03-13T13:46:20.147Z,5.43
2019-03-13T13:48:49.471Z,3.97
2019-03-13T13:51:38.111Z,5.20
2019-03-13T13:54:07.431Z,6.47
2019-03-13T13:56:36.774Z,5.53
2019-03-13T13:59:06.187Z,6.20
2019-03-13T14:01:35.559Z,3.50
2019-03-13T14:04:04.871Z,6.90
2019-03-13T14:06:34.260Z,5.07
2019-03-13T14:09:05.079Z,3.73
2019-03-13T14:11:36.032Z,6.03
2019-03-13T14:14:05.643Z,4.43
2019-03-13T14:16:35.151Z,8.27
2019-03-13T14:19:04.726Z,6.70
2019-03-13T14:21:34.115Z,9.80
2019-03-13T14:24:03.415Z,3.67
2019-03-13T14:26:32.770Z,8.87
2019-03-13T14:29:02.095Z,11.50
2019-03-13T14:31:31.470Z,5.50
2019-03-13T14:34:00.955Z,7.17
2019-03-13T14:36:30.318Z,6.50
2019-03-13T14:38:59.675Z,6.37
2019-03-13T14:41:29.115Z,9.57
2019-03-13T14:43:58.425Z,6.37
2019-03-13T14:46:27.809Z,6.83
2019-03-13T14:48:57.386Z,4.33
2019-03-13T14:51:26.722Z,7.67
2019-03-13T14:53:56.382Z,10.83
2019-03-13T14:56:25.792Z,9.37
2019-03-13T14:58:55.157Z,4.30
2019-03-13T15:01:25.560Z,8.30
2019-03-13T15:03:54.862Z,5.27
2019-03-13T15:06:24.175Z,9.47
2019-03-13T15:08:53.487Z,3.20
2019-03-13T15:11:22.778Z,6.50
2019-03-13T15:13:52.126Z,5.03
2019-03-13T15:16:21.435Z,6.23
2019-03-13T15:18:50.803Z,6.33
2019-03-13T15:21:20.111Z,6.10
2019-03-13T15:23:49.457Z,4.90
2019-03-13T15:26:19.838Z,7.63
2019-03-13T15:28:49.268Z,5.13
2019-03-13T15:31:18.644Z,12.80
2019-03-13T15:33:47.951Z,5.90
2019-03-13T15:36:17.264Z,6.40
2019-03-13T15:38:46.560Z,5.00
2019-03-13T15:41:15.850Z,6.20
2019-03-13T15:43:45.158Z,8.63
2019-03-13T15:46:14.491Z,4.57
2019-03-13T15:48:43.788Z,5.60
2019-03-13T15:51:13.107Z,5.57
2019-03-13T15:53:42.411Z,8.23
2019-03-13T15:56:11.728Z,9.27
2019-03-13T15:58:41.080Z,5.13
2019-03-13T16:01:11.432Z,5.97
2019-03-13T16:03:40.819Z,3.80
2019-03-13T16:06:10.194Z,8.67
2019-03-13T16:08:39.495Z,4.60
2019-03-13T16:11:09.762Z,4.67
2019-03-13T16:13:39.099Z,6.67
2019-03-13T16:16:08.412Z,6.80
2019-03-13T16:18:37.703Z,5.23
2019-03-13T16:21:07.084Z,5.97
2019-03-13T16:23:36.375Z,6.67
2019-03-13T16:26:05.760Z,3.63
2019-03-13T16:28:35.073Z,14.07
2019-03-13T16:31:04.442Z,4.97
2019-03-13T16:33:33.739Z,5.00
2019-03-13T16:36:03.040Z,6.10
2019-03-13T16:38:32.333Z,4.73
2019-03-13T16:41:01.709Z,7.17
2019-03-13T16:43:31.144Z,5.63
2019-03-13T16:46:00.492Z,65.17
2019-03-13T16:48:29.968Z,19.27
2019-03-13T16:50:59.642Z,10.37
2019-03-13T16:53:29.010Z,6.50
2019-03-13T16:55:58.292Z,14.53
2019-03-13T16:58:27.715Z,14.10
2019-03-13T17:00:57.010Z,39.37
2019-03-13T17:03:26.390Z,10.60
2019-03-13T17:05:55.686Z,8.47
2019-03-13T17:08:24.978Z,8.47
2019-03-13T17:10:54.289Z,10.63
2019-03-13T17:13:23.583Z,7.60
2019-03-13T17:15:52.892Z,4.70
2019-03-13T17:18:22.233Z,5.77
2019-03-13T17:20:51.590Z,8.47
2019-03-13T17:23:20.902Z,9.10
2019-03-13T17:25:50.194Z,5.00
2019-03-13T17:28:19.502Z,5.50
2019-03-13T17:30:49.780Z,7.90
2019-03-13T17:33:19.097Z,6.80
2019-03-13T17:35:48.392Z,11.30
2019-03-13T17:38:17.693Z,7.10
2019-03-13T17:40:46.999Z,8.50
2019-03-13T17:43:16.322Z,9.00
2019-03-13T17:45:45.624Z,8.03
2019-03-13T17:48:15.100Z,9.17
2019-03-13T17:50:44.399Z,9.53
2019-03-13T17:53:14.681Z,16.43
2019-03-13T17:55:43.983Z,74.23
2019-03-13T17:58:13.404Z,28.03
2019-03-13T18:00:50.264Z,30.53
2019-03-13T18:03:20.526Z,27.63
2019-03-13T18:05:49.840Z,31.53
2019-03-13T18:08:19.627Z,32.03
2019-03-13T18:10:48.926Z,43.83
2019-03-13T18:13:18.250Z,34.57
2019-03-13T18:15:47.542Z,36.97
2019-03-13T18:18:16.854Z,36.97
2019-03-13T18:20:46.154Z,56.60
2019-03-13T18:23:15.482Z,49.10
2019-03-13T18:25:44.862Z,49.33
2019-03-13T18:28:14.163Z,38.87
2019-03-13T18:30:43.485Z,59.87
2019-03-13T18:33:12.783Z,25.63
2019-03-13T18:35:42.085Z,40.27
2019-03-13T18:38:11.379Z,35.30
2019-03-13T18:40:40.692Z,84.90
2019-03-13T18:43:10.070Z,53.50
2019-03-13T18:45:39.382Z,43.13
2019-03-13T18:48:08.855Z,90.07
2019-03-13T18:50:38.179Z,101.93
2019-03-13T18:53:07.585Z,119.93
2019-03-13T18:55:37.399Z,111.87
2019-03-13T18:58:06.746Z,111.23
2019-03-13T19:00:37.521Z,94.03
2019-03-13T19:03:07.966Z,80.47
2019-03-13T19:05:38.319Z,60.57
2019-03-13T19:08:08.806Z,87.17
2019-03-13T19:10:38.184Z,60.90
2019-03-13T19:13:07.705Z,86.10
2019-03-13T19:15:39.927Z,84.70
2019-03-13T19:18:08.028Z,58.20
2019-03-13T19:20:37.545Z,48.43
2019-03-13T19:23:07.030Z,41.77
2019-03-13T19:25:36.374Z,52.70
2019-03-13T19:28:06.044Z,58.13
2019-03-13T19:30:37.887Z,55.10
2019-03-13T19:33:07.089Z,55.97
2019-03-13T19:35:36.436Z,91.07
2019-03-13T19:38:09.127Z,126.47
2019-03-13T19:40:38.450Z,33.80
2019-03-13T19:43:08.627Z,63.10
2019-03-13T19:45:50.319Z,73.83
2019-03-13T19:48:19.621Z,27.73
2019-03-13T19:50:49.014Z,17.03
2019-03-13T19:53:18.328Z,11.67
2019-03-13T19:55:47.623Z,7.73
2019-03-13T19:58:16.941Z,7.57
2019-03-13T20:00:46.233Z,7.13
2019-03-13T20:03:16.822Z,7.73
2019-03-13T20:05:46.652Z,9.90
2019-03-13T20:08:34.639Z,10.37
2019-03-13T20:11:04.978Z,7.50
2019-03-13T20:13:34.423Z,6.87
2019-03-13T20:16:04.883Z,11.77
2019-03-13T20:18:34.290Z,6.33
2019-03-13T20:21:03.723Z,8.83
2019-03-13T20:23:33.090Z,6.27
2019-03-13T20:26:03.397Z,7.30
2019-03-13T20:28:32.734Z,5.87
2019-03-13T20:31:02.145Z,7.30
2019-03-13T20:33:32.001Z,6.90
2019-03-13T20:36:01.338Z,6.03
2019-03-13T20:38:30.683Z,7.20
2019-03-13T20:41:00.087Z,4.27
2019-03-13T20:43:29.379Z,3.83
2019-03-13T20:45:59.751Z,4.97
2019-03-13T20:48:29.118Z,2.07
2019-03-13T20:50:58.430Z,3.77
2019-03-13T20:53:27.738Z,3.30
2019-03-13T20:55:58.769Z,4.80
2019-03-13T20:58:28.443Z,6.47
2019-03-13T21:00:57.742Z,9.27
2019-03-13T21:03:27.055Z,3.50
2019-03-13T21:05:56.357Z,6.93
2019-03-13T21:08:25.718Z,5.30
2019-03-13T21:10:55.103Z,6.13
2019-03-13T21:13:24.491Z,5.00
2019-03-13T21:15:53.790Z,7.50
2019-03-13T21:18:23.108Z,14.50
2019-03-13T21:20:52.420Z,7.73
2019-03-13T21:23:22.694Z,6.57
2019-03-13T21:25:51.972Z,7.33
2019-03-13T21:28:21.360Z,7.10
2019-03-13T21:30:50.663Z,6.23
2019-03-13T21:33:19.991Z,6.13
2019-03-13T21:35:49.280Z,5.60
2019-03-13T21:38:18.599Z,5.37
2019-03-13T21:40:47.924Z,4.87
2019-03-13T21:43:17.337Z,3.37
2019-03-13T21:45:46.655Z,3.10
2019-03-13T21:48:15.967Z,4.63
2019-03-13T21:50:45.267Z,4.77
2019-03-13T21:53:14.581Z,12.47
2019-03-13T21:55:43.883Z,2.43
2019-03-13T21:58:13.199Z,2.77
2019-03-13T22:00:42.553Z,2.10
2019-03-13T22:03:11.958Z,2.97
2019-03-13T22:05:41.262Z,2.13
2019-03-13T22:08:10.568Z,1.57
2019-03-13T22:10:39.899Z,3.27
2019-03-13T22:13:09.259Z,3.13
2019-03-13T22:15:38.562Z,3.90
2019-03-13T22:18:07.865Z,3.00
2019-03-13T22:20:37.158Z,4.17
2019-03-13T22:23:06.466Z,4.43
2019-03-13T22:25:35.782Z,3.07
2019-03-13T22:28:05.063Z,7.03
2019-03-13T22:30:34.362Z,4.83
2019-03-13T22:33:03.733Z,4.20
2019-03-13T22:35:33.022Z,3.90
2019-03-13T22:38:02.315Z,3.13
2019-03-13T22:40:31.663Z,4.23
2019-03-13T22:43:00.964Z,4.17
2019-03-13T22:45:30.271Z,6.20
2019-03-13T22:47:59.554Z,4.30
2019-03-13T22:50:28.858Z,6.37
2019-03-13T22:52:58.154Z,4.77
2019-03-13T22:55:27.442Z,6.17
2019-03-13T22:57:56.739Z,2.90
2019-03-13T23:00:47.081Z,5.70
2019-03-13T23:03:18.791Z,5.40
2019-03-13T23:05:48.172Z,3.07
2019-03-13T23:08:17.463Z,4.30
2019-03-13T23:10:46.746Z,7.57
2019-03-13T23:13:17.390Z,4.73
2019-03-13T23:15:47.259Z,4.87
2019-03-13T23:18:18.331Z,6.60
2019-03-13T23:20:47.558Z,5.93
2019-03-13T23:23:16.913Z,4.73
2019-03-13T23:25:46.288Z,3.50
2019-03-13T23:28:15.582Z,6.47
2019-03-13T23:30:44.883Z,8.97
2019-03-13T23:33:14.172Z,8.20
2019-03-13T23:35:43.489Z,10.20
2019-03-13T23:38:12.778Z,7.40
2019-03-13T23:40:42.077Z,5.50
2019-03-13T23:43:11.388Z,9.10
2019-03-13T23:45:40.683Z,3.97
2019-03-13T23:48:09.991Z,4.70
2019-03-13T23:50:39.277Z,2.90
2019-03-13T23:53:08.598Z,20.03
2019-03-13T23:55:37.883Z,8.07
2019-03-13T23:58:07.260Z,6.87
